Time;durP1;ratioP1;P1;durP2;ratioP2;P2;SDS_P1;SDS_P2;PMS_P1;PMS_P2;Temp;Humidity;BMP_temperature;BMP_pressure;BME280_temperature;BME280_humidity;BME280_pressure;Samples;Min_cycle;Max_cycle;Signal;HPM_P1;HPM_P2
2023/06/10 00:01:13;;;;;;;6.60;6.00;;;20.40;62.10;;;;;;4935731;29;20264;-75
2023/06/10 00:03:38;;;;;;;7.70;6.90;;;20.40;62.70;;;;;;4914282;29;20209;-74
2023/06/10 00:06:05;;;;;;;7.97;7.17;;;20.40;63.20;;;;;;4947746;29;20181;-76
2023/06/10 00:08:31;;;;;;;6.93;6.33;;;20.40;63.40;;;;;;4949810;29;20188;-74
2023/06/10 00:10:56;;;;;;;6.33;5.83;;;20.40;63.60;;;;;;4929422;29;20479;-74
2023/06/10 00:13:22;;;;;;;7.47;6.70;;;20.30;63.80;;;;;;4930640;29;20469;-75
2023/06/10 00:15:48;;;;;;;5.53;5.13;;;20.30;64.30;;;;;;4918813;29;20281;-74
2023/06/10 00:18:15;;;;;;;7.40;6.70;;;20.20;64.70;;;;;;4927829;29;20469;-76
2023/06/10 00:20:42;;;;;;;8.70;7.10;;;20.20;65.70;;;;;;4936893;29;20222;-76
2023/06/10 00:23:08;;;;;;;7.80;6.90;;;20.20;66.30;;;;;;4945647;29;20416;-76
2023/06/10 00:25:34;;;;;;;8.80;8.00;;;20.20;66.60;;;;;;4941437;29;20551;-73
2023/06/10 00:28:00;;;;;;;8.17;7.43;;;20.20;67.00;;;;;;4927580;29;20725;-75
2023/06/10 00:30:28;;;;;;;7.53;6.67;;;20.20;67.30;;;;;;4928556;29;20443;-76
2023/06/10 00:32:53;;;;;;;8.40;7.67;;;20.20;67.40;;;;;;4914972;29;20533;-75
2023/06/10 00:35:20;;;;;;;7.73;7.03;;;20.10;67.60;;;;;;4944805;29;20188;-75
2023/06/10 00:37:46;;;;;;;7.87;7.20;;;20.20;68.20;;;;;;4930000;29;20193;-75
2023/06/10 00:40:12;;;;;;;6.63;6.03;;;20.20;68.60;;;;;;4914340;29;20504;-74
2023/06/10 00:42:38;;;;;;;5.93;5.40;;;20.10;68.70;;;;;;4929828;29;20193;-74
2023/06/10 00:45:04;;;;;;;5.70;5.20;;;20.00;69.50;;;;;;4949569;29;20508;-77
2023/06/10 00:47:31;;;;;;;5.83;5.33;;;19.90;70.60;;;;;;4934832;29;20219;-76
2023/06/10 00:49:56;;;;;;;5.10;4.60;;;19.80;71.80;;;;;;4936312;29;20490;-75
2023/06/10 00:52:27;;;;;;;5.23;4.83;;;19.70;73.20;;;;;;4914785;29;20410;-75
2023/06/10 00:54:54;;;;;;;5.30;4.90;;;19.60;74.20;;;;;;4940550;29;20432;-74
2023/06/10 00:57:20;;;;;;;5.50;5.00;;;19.60;75.80;;;;;;4953236;29;20418;-74
2023/06/10 00:59:50;;;;;;;5.83;4.67;;;19.50;77.10;;;;;;4917249;29;20429;-74
2023/06/10 01:02:16;;;;;;;5.53;5.03;;;19.50;78.00;;;;;;4930530;29;20450;-76
2023/06/10 01:04:42;;;;;;;5.40;4.90;;;19.40;78.80;;;;;;4934120;29;20440;-75
2023/06/10 01:07:28;;;;;;;5.20;4.80;;;19.40;80.10;;;;;;4948853;29;20181;-74
2023/06/10 01:10:01;;;;;;;5.00;4.50;;;19.40;81.60;;;;;;4948559;29;20591;-74
2023/06/10 01:12:54;;;;;;;5.67;5.20;;;19.30;82.90;;;;;;4962318;28;20540;-74
2023/06/10 01:15:21;;;;;;;11.40;6.77;;;19.30;84.00;;;;;;4952322;29;20416;-73
2023/06/10 01:18:01;;;;;;;6.90;6.30;;;19.30;84.30;;;;;;4950889;29;20466;-75
2023/06/10 01:20:31;;;;;;;6.03;5.30;;;19.20;84.60;;;;;;4963954;29;20467;-74
2023/06/10 01:23:02;;;;;;;7.23;6.53;;;19.30;85.50;;;;;;4951919;29;20487;-74
2023/06/10 01:25:29;;;;;;;5.70;5.20;;;19.20;86.60;;;;;;4970841;29;20422;-76
2023/06/10 01:28:18;;;;;;;5.00;4.60;;;19.10;87.90;;;;;;4951121;29;20423;-75
2023/06/10 01:30:51;;;;;;;5.50;5.00;;;19.10;88.80;;;;;;4947468;29;20434;-74
2023/06/10 01:33:28;;;;;;;4.73;4.33;;;19.10;89.50;;;;;;4948720;29;20481;-72
2023/06/10 01:35:57;;;;;;;4.40;4.00;;;19.10;90.30;;;;;;4945339;29;20492;-74
2023/06/10 01:38:25;;;;;;;4.93;4.43;;;18.90;90.60;;;;;;4950803;29;20441;-74
2023/06/10 01:40:53;;;;;;;5.03;4.60;;;18.90;91.10;;;;;;4947474;29;20452;-73
2023/06/10 01:43:20;;;;;;;5.30;4.80;;;18.80;91.50;;;;;;4946991;29;20726;-73
2023/06/10 01:45:46;;;;;;;5.83;5.33;;;18.80;92.00;;;;;;4948214;29;20428;-74
2023/06/10 01:48:12;;;;;;;5.73;5.23;;;18.80;92.40;;;;;;4939804;29;20895;-74
2023/06/10 01:50:38;;;;;;;5.70;5.20;;;18.80;92.80;;;;;;4949593;29;20216;-74
2023/06/10 01:53:05;;;;;;;5.57;5.07;;;18.70;93.20;;;;;;4934103;29;20213;-73
2023/06/10 01:55:30;;;;;;;5.03;4.63;;;18.70;93.50;;;;;;4965436;28;20443;-73
2023/06/10 01:57:56;;;;;;;4.60;4.20;;;18.70;94.00;;;;;;4965329;29;20424;-75
2023/06/10 02:00:23;;;;;;;5.10;4.60;;;18.70;94.30;;;;;;4949753;29;20217;-75
2023/06/10 02:02:50;;;;;;;4.63;4.23;;;18.70;94.60;;;;;;4950346;29;20214;-73
2023/06/10 02:05:16;;;;;;;4.73;4.33;;;18.60;94.60;;;;;;4948010;29;20431;-74
2023/06/10 02:07:41;;;;;;;6.07;5.57;;;18.60;94.60;;;;;;4929684;29;20466;-74
2023/06/10 02:10:08;;;;;;;5.20;4.70;;;18.60;95.00;;;;;;4946571;29;20227;-74
2023/06/10 02:12:34;;;;;;;5.83;5.23;;;18.60;95.20;;;;;;4958919;29;20218;-74
2023/06/10 02:15:00;;;;;;;5.10;4.67;;;18.50;95.40;;;;;;4930255;29;20900;-74
2023/06/10 02:17:26;;;;;;;4.33;4.00;;;18.50;95.60;;;;;;4930019;29;20254;-77
2023/06/10 02:19:54;;;;;;;5.30;4.70;;;18.50;96.00;;;;;;4937159;29;20207;-74
2023/06/10 02:22:22;;;;;;;4.97;4.50;;;18.40;96.10;;;;;;4935836;29;20427;-74
2023/06/10 02:24:48;;;;;;;4.37;3.97;;;18.40;96.50;;;;;;4924054;29;20468;-73
2023/06/10 02:27:15;;;;;;;5.30;4.43;;;18.40;96.80;;;;;;4897595;29;20488;-74
2023/06/10 02:29:41;;;;;;;4.43;3.80;;;18.40;97.00;;;;;;4944679;29;20450;-72
2023/06/10 02:32:08;;;;;;;4.90;4.50;;;18.30;97.20;;;;;;4942723;29;20432;-73
2023/06/10 02:34:34;;;;;;;4.30;3.97;;;18.30;97.40;;;;;;4940679;29;20549;-72
2023/06/10 02:37:01;;;;;;;5.33;4.83;;;18.30;97.90;;;;;;4914343;29;20178;-73
2023/06/10 02:39:27;;;;;;;4.20;3.90;;;18.30;98.30;;;;;;4923239;29;20484;-73
2023/06/10 02:41:54;;;;;;;4.37;4.00;;;18.20;98.50;;;;;;4902330;29;20426;-76
2023/06/10 02:44:20;;;;;;;3.80;3.50;;;18.20;98.60;;;;;;4927715;29;20947;-72
2023/06/10 02:46:46;;;;;;;4.47;4.10;;;18.20;98.60;;;;;;4942549;29;20511;-73
2023/06/10 02:49:12;;;;;;;4.33;3.93;;;18.20;99.00;;;;;;4928262;29;20206;-74
2023/06/10 02:51:39;;;;;;;4.60;4.20;;;18.10;99.40;;;;;;4943266;29;20445;-72
2023/06/10 02:54:05;;;;;;;4.60;4.20;;;18.10;99.60;;;;;;4936693;29;20480;-73
2023/06/10 02:56:31;;;;;;;4.27;3.87;;;18.10;99.60;;;;;;4946518;29;20771;-72
2023/06/10 02:59:00;;;;;;;4.47;4.10;;;18.10;99.90;;;;;;4962840;29;20437;-73
2023/06/10 03:01:26;;;;;;;4.70;4.30;;;18.10;99.90;;;;;;4946936;29;20445;-73
2023/06/10 03:04:00;;;;;;;3.80;3.50;;;18.00;99.90;;;;;;4948821;29;20445;-73
2023/06/10 03:06:26;;;;;;;4.13;3.73;;;18.00;99.90;;;;;;4964144;28;20413;-73
2023/06/10 03:08:57;;;;;;;4.03;3.73;;;18.00;99.90;;;;;;4947164;29;20203;-73
2023/06/10 03:11:23;;;;;;;5.37;4.87;;;17.90;99.90;;;;;;4958856;29;20549;-75
2023/06/10 03:13:49;;;;;;;5.10;4.60;;;17.90;99.90;;;;;;4928330;29;20376;-73
2023/06/10 03:16:18;;;;;;;5.47;4.97;;;17.90;99.90;;;;;;4927693;29;20430;-73
2023/06/10 03:18:44;;;;;;;8.00;7.30;;;17.80;99.90;;;;;;4939788;29;20850;-74
2023/06/10 03:21:11;;;;;;;10.53;8.50;;;17.80;99.90;;;;;;4911720;29;20404;-73
2023/06/10 03:23:37;;;;;;;8.90;7.40;;;17.80;99.90;;;;;;4946012;29;20507;-73
2023/06/10 03:26:04;;;;;;;9.90;7.93;;;17.80;99.90;;;;;;4939874;29;20459;-73
2023/06/10 03:28:31;;;;;;;8.60;7.27;;;17.80;99.90;;;;;;4906394;29;20698;-72
2023/06/10 03:30:57;;;;;;;9.87;7.77;;;17.80;99.90;;;;;;4936626;29;20434;-73
2023/06/10 03:33:26;;;;;;;8.03;5.60;;;17.80;99.90;;;;;;4927011;29;20472;-74
2023/06/10 03:35:52;;;;;;;7.60;6.73;;;17.80;99.90;;;;;;4907176;29;20425;-73
2023/06/10 03:38:18;;;;;;;6.70;6.00;;;17.80;99.90;;;;;;4934169;29;20421;-74
2023/06/10 03:40:45;;;;;;;5.50;5.00;;;17.80;99.90;;;;;;4928865;29;20505;-72
2023/06/10 03:43:11;;;;;;;6.07;5.30;;;17.80;99.90;;;;;;4940936;29;20929;-73
2023/06/10 03:45:37;;;;;;;6.10;5.60;;;17.90;99.90;;;;;;4909442;29;20415;-74
2023/06/10 03:48:03;;;;;;;5.53;5.03;;;18.00;99.90;;;;;;4936230;29;20190;-72
2023/06/10 03:50:37;;;;;;;5.87;5.37;;;18.10;99.90;;;;;;4906470;29;20207;-73
2023/06/10 03:53:03;;;;;;;6.57;5.97;;;18.10;99.90;;;;;;4924835;29;20485;-73
2023/06/10 03:55:31;;;;;;;8.17;7.10;;;18.20;99.90;;;;;;4941377;29;20592;-72
2023/06/10 03:57:58;;;;;;;9.27;8.47;;;18.20;99.90;;;;;;4910379;29;20502;-73
2023/06/10 04:00:24;;;;;;;10.80;9.83;;;18.30;99.90;;;;;;4923664;29;20454;-73
2023/06/10 04:02:51;;;;;;;8.97;8.17;;;18.30;99.90;;;;;;4938487;29;20213;-72
2023/06/10 04:05:28;;;;;;;9.10;8.27;;;18.40;99.90;;;;;;4920285;29;20417;-72
2023/06/10 04:07:54;;;;;;;7.67;6.87;;;18.40;99.90;;;;;;4937769;29;20424;-72
2023/06/10 04:10:20;;;;;;;7.33;6.63;;;18.50;99.90;;;;;;4936656;29;20441;-72
2023/06/10 04:12:45;;;;;;;5.80;5.30;;;18.50;99.90;;;;;;4938246;29;20213;-73
2023/06/10 04:15:12;;;;;;;5.83;5.33;;;18.50;99.90;;;;;;4936794;29;20186;-73
2023/06/10 04:17:38;;;;;;;4.93;4.53;;;18.60;99.90;;;;;;4955312;29;20201;-72
2023/06/10 04:20:06;;;;;;;5.10;4.70;;;18.60;99.90;;;;;;4929331;29;20865;-72
2023/06/10 04:22:32;;;;;;;5.30;4.83;;;18.60;99.90;;;;;;4963823;29;20186;-72
2023/06/10 04:24:58;;;;;;;4.10;3.80;;;18.70;99.90;;;;;;4963684;28;20844;-73
2023/06/10 04:27:24;;;;;;;4.33;3.93;;;18.70;99.90;;;;;;4946846;29;20182;-73
2023/06/10 04:29:53;;;;;;;3.60;3.30;;;18.80;99.60;;;;;;4942871;29;20536;-73
2023/06/10 04:32:19;;;;;;;4.33;3.93;;;18.80;99.10;;;;;;4945342;28;20503;-72
2023/06/10 04:34:45;;;;;;;4.17;3.77;;;18.90;98.60;;;;;;4919852;29;20464;-72
2023/06/10 04:37:11;;;;;;;3.83;3.47;;;19.00;98.10;;;;;;4912433;29;20419;-71
2023/06/10 04:39:37;;;;;;;4.30;3.90;;;19.10;97.20;;;;;;4944794;29;20603;-73
2023/06/10 04:42:03;;;;;;;3.87;3.57;;;19.20;96.70;;;;;;4955875;28;20256;-72
2023/06/10 04:44:30;;;;;;;4.03;3.73;;;19.30;96.20;;;;;;4945970;29;20203;-73
2023/06/10 04:46:56;;;;;;;5.70;5.20;;;19.70;95.30;;;;;;4943534;29;20569;-72
2023/06/10 04:49:22;;;;;;;6.63;5.50;;;20.20;92.60;;;;;;4925407;29;20453;-72
2023/06/10 04:51:47;;;;;;;5.43;4.93;;;20.80;87.80;;;;;;4925947;29;20182;-73
2023/06/10 04:54:13;;;;;;;5.47;5.00;;;21.50;80.00;;;;;;4940429;29;20718;-73
2023/06/10 04:56:39;;;;;;;5.57;4.73;;;22.00;72.90;;;;;;4944420;29;20190;-73
2023/06/10 04:59:05;;;;;;;6.07;5.47;;;22.60;68.30;;;;;;4943611;29;20485;-73
2023/06/10 05:01:30;;;;;;;6.63;5.93;;;23.10;64.00;;;;;;4962450;28;20193;-73
2023/06/10 05:03:56;;;;;;;7.90;7.20;;;23.50;61.00;;;;;;4949764;29;20190;-73
2023/06/10 05:06:21;;;;;;;7.70;6.90;;;23.80;59.10;;;;;;4948115;28;20201;-73
2023/06/10 05:08:47;;;;;;;7.33;6.67;;;24.10;57.80;;;;;;4963423;29;20541;-72
2023/06/10 05:11:12;;;;;;;6.43;5.70;;;24.40;56.70;;;;;;4964754;28;20516;-72
2023/06/10 05:13:40;;;;;;;10.20;9.13;;;24.60;56.00;;;;;;4963608;28;20351;-72
2023/06/10 05:16:06;;;;;;;7.07;6.47;;;24.80;54.80;;;;;;4971767;28;20195;-72
2023/06/10 05:18:31;;;;;;;6.30;5.77;;;24.90;54.20;;;;;;4969434;28;20424;-73
2023/06/10 05:20:57;;;;;;;7.33;6.73;;;25.20;53.80;;;;;;4963227;29;20427;-72
2023/06/10 05:23:23;;;;;;;10.50;7.47;;;25.30;52.60;;;;;;4963126;28;20203;-72
2023/06/10 05:25:48;;;;;;;8.83;7.97;;;25.50;51.80;;;;;;4973191;28;20203;-72
2023/06/10 05:28:14;;;;;;;8.60;7.73;;;25.60;51.00;;;;;;4967231;28;20240;-73
2023/06/10 05:30:40;;;;;;;7.77;7.07;;;25.80;50.70;;;;;;4941612;29;20241;-72
2023/06/10 05:33:05;;;;;;;7.17;6.57;;;25.90;50.20;;;;;;4940564;29;20493;-74
2023/06/10 05:35:31;;;;;;;8.73;6.83;;;26.10;49.90;;;;;;4959872;28;20275;-72
2023/06/10 05:37:57;;;;;;;7.67;7.07;;;26.20;49.10;;;;;;4970537;28;20231;-73
2023/06/10 05:40:22;;;;;;;9.00;7.37;;;26.40;48.50;;;;;;4979109;28;20258;-72
2023/06/10 05:42:48;;;;;;;6.47;5.97;;;26.40;48.00;;;;;;4960144;29;20477;-73
2023/06/10 05:45:13;;;;;;;7.23;6.63;;;26.60;48.10;;;;;;4943374;28;20198;-72
2023/06/10 05:47:40;;;;;;;7.60;6.90;;;26.70;47.70;;;;;;4946069;28;20289;-72
2023/06/10 05:50:07;;;;;;;7.70;7.00;;;26.90;47.20;;;;;;4955884;29;20232;-73
2023/06/10 05:52:34;;;;;;;7.67;6.87;;;27.10;46.80;;;;;;4959985;28;20425;-73
2023/06/10 05:54:59;;;;;;;7.30;6.70;;;27.20;46.30;;;;;;4960209;29;20432;-73
2023/06/10 05:57:25;;;;;;;7.17;6.50;;;27.40;45.50;;;;;;4968933;28;20827;-73
2023/06/10 05:59:51;;;;;;;7.57;6.70;;;27.60;44.90;;;;;;4978579;28;20314;-74
2023/06/10 06:02:17;;;;;;;6.73;5.80;;;27.60;44.50;;;;;;4960244;28;20457;-73
2023/06/10 06:04:42;;;;;;;6.70;6.10;;;27.70;44.20;;;;;;4953311;28;20477;-72
2023/06/10 06:07:08;;;;;;;5.77;5.27;;;27.90;43.90;;;;;;4959498;29;20616;-72
2023/06/10 06:09:33;;;;;;;6.43;5.93;;;27.90;43.50;;;;;;4959436;29;20215;-74
2023/06/10 06:11:59;;;;;;;7.47;6.80;;;28.00;42.40;;;;;;4960014;29;20223;-76
2023/06/10 06:14:24;;;;;;;6.80;6.10;;;28.00;41.90;;;;;;4959041;29;20304;-73
2023/06/10 06:16:50;;;;;;;8.33;6.20;;;28.00;41.90;;;;;;4946810;29;20277;-74
2023/06/10 06:19:15;;;;;;;7.23;6.53;;;28.10;41.20;;;;;;4938855;29;20221;-73
2023/06/10 06:21:41;;;;;;;6.23;5.70;;;28.00;41.30;;;;;;4940523;29;20189;-72
2023/06/10 06:24:07;;;;;;;6.20;5.60;;;28.10;41.20;;;;;;4958937;29;20197;-72
2023/06/10 06:26:32;;;;;;;6.20;5.70;;;28.20;40.90;;;;;;4943880;29;20505;-71
2023/06/10 06:28:58;;;;;;;6.20;5.63;;;28.30;40.70;;;;;;4923032;29;20229;-73
2023/06/10 06:31:23;;;;;;;6.40;5.80;;;28.40;40.60;;;;;;4953495;29;20203;-73
2023/06/10 06:33:49;;;;;;;6.23;5.60;;;28.50;40.50;;;;;;4946301;29;20221;-73
2023/06/10 06:36:15;;;;;;;6.43;5.90;;;28.60;40.00;;;;;;4941605;29;20193;-73
2023/06/10 06:38:40;;;;;;;6.17;5.57;;;28.60;39.40;;;;;;4939876;29;20197;-74
2023/06/10 06:41:06;;;;;;;7.07;6.37;;;28.40;39.70;;;;;;4923001;29;20186;-74
2023/06/10 06:43:32;;;;;;;6.53;6.00;;;28.40;39.80;;;;;;4950827;29;20265;-73
2023/06/10 06:46:18;;;;;;;6.50;5.80;;;28.50;39.70;;;;;;4951631;29;20169;-76
2023/06/10 06:48:44;;;;;;;8.37;6.90;;;28.50;39.90;;;;;;4956874;29;20610;-73
2023/06/10 06:51:10;;;;;;;6.83;6.23;;;28.50;39.70;;;;;;4959188;29;20501;-74
2023/06/10 06:53:36;;;;;;;7.90;6.67;;;28.40;39.90;;;;;;4944096;29;20478;-74
2023/06/10 06:56:02;;;;;;;5.97;5.43;;;28.40;39.90;;;;;;4922885;29;20178;-73
2023/06/10 06:58:28;;;;;;;6.47;5.77;;;28.50;40.10;;;;;;4958835;29;20412;-74
2023/06/10 07:00:53;;;;;;;7.57;6.87;;;28.50;40.20;;;;;;4957859;29;20448;-76
2023/06/10 07:03:21;;;;;;;8.77;6.03;;;28.50;39.80;;;;;;4930900;29;20721;-74
2023/06/10 07:05:47;;;;;;;7.33;6.47;;;28.60;39.70;;;;;;4953333;29;20464;-73
2023/06/10 07:08:12;;;;;;;7.13;6.53;;;28.50;39.60;;;;;;4930499;29;20174;-74
2023/06/10 07:10:38;;;;;;;7.43;6.00;;;28.40;39.90;;;;;;4931070;29;20213;-74
2023/06/10 07:13:04;;;;;;;6.07;5.57;;;28.20;40.90;;;;;;4929354;29;20272;-74
2023/06/10 07:15:30;;;;;;;9.30;5.80;;;28.20;40.60;;;;;;4926299;29;20526;-74
2023/06/10 07:17:56;;;;;;;5.40;4.90;;;28.20;40.80;;;;;;4910116;29;20190;-76
2023/06/10 07:20:21;;;;;;;7.23;6.47;;;28.20;40.90;;;;;;4928308;29;20505;-76
2023/06/10 07:22:47;;;;;;;6.53;5.93;;;28.20;40.70;;;;;;4931572;29;20233;-78
2023/06/10 07:25:13;;;;;;;7.40;6.70;;;28.20;40.30;;;;;;4915088;29;20200;-77
2023/06/10 07:27:38;;;;;;;6.57;5.97;;;28.00;40.90;;;;;;4947900;29;20398;-74
2023/06/10 07:30:07;;;;;;;7.00;6.30;;;27.80;41.50;;;;;;4933194;29;20274;-75
2023/06/10 07:32:33;;;;;;;6.77;6.17;;;27.80;41.70;;;;;;4928436;29;20210;-78
2023/06/10 07:34:59;;;;;;;5.70;5.07;;;27.60;42.10;;;;;;4928181;29;20525;-78
2023/06/10 07:37:25;;;;;;;7.03;6.40;;;27.50;42.50;;;;;;4928075;29;20179;-75
2023/06/10 07:39:50;;;;;;;6.53;5.93;;;27.30;42.60;;;;;;4911748;29;20210;-74
2023/06/10 07:42:16;;;;;;;5.67;5.10;;;27.00;42.70;;;;;;4915244;29;20208;-75
2023/06/10 07:44:42;;;;;;;6.90;6.30;;;26.80;43.30;;;;;;4932281;29;20430;-76
2023/06/10 07:47:08;;;;;;;6.73;5.83;;;26.60;44.00;;;;;;4949863;29;20550;-75
2023/06/10 07:49:33;;;;;;;9.60;7.33;;;26.30;44.00;;;;;;4934584;29;20206;-76
2023/06/10 07:51:59;;;;;;;6.73;6.13;;;26.10;44.20;;;;;;4896842;29;20234;-75
2023/06/10 07:54:24;;;;;;;9.17;7.13;;;26.10;44.60;;;;;;4929384;29;20645;-74
2023/06/10 07:56:52;;;;;;;9.00;6.60;;;26.00;45.00;;;;;;4930737;29;20210;-75
2023/06/10 07:59:18;;;;;;;7.20;6.47;;;26.00;45.20;;;;;;4902379;29;20226;-76
2023/06/10 08:01:43;;;;;;;8.03;6.63;;;26.00;45.30;;;;;;4909719;29;20877;-76
2023/06/10 08:04:09;;;;;;;7.70;6.57;;;25.90;45.50;;;;;;4941551;29;20189;-74
2023/06/10 08:06:36;;;;;;;6.83;6.20;;;25.90;45.50;;;;;;4945698;29;20189;-75
2023/06/10 08:09:02;;;;;;;6.53;5.93;;;26.00;45.70;;;;;;4946304;29;20309;-73
2023/06/10 08:11:29;;;;;;;5.67;4.93;;;26.10;45.50;;;;;;4956015;28;20496;-76
2023/06/10 08:13:55;;;;;;;6.97;6.27;;;26.20;45.40;;;;;;4935899;29;20455;-78
2023/06/10 08:16:21;;;;;;;6.53;5.97;;;26.30;45.20;;;;;;4951457;29;20507;-76
2023/06/10 08:18:46;;;;;;;6.43;5.90;;;26.30;45.10;;;;;;4964447;29;20499;-73
2023/06/10 08:21:12;;;;;;;10.30;8.50;;;26.40;45.10;;;;;;4965470;29;20195;-76
2023/06/10 08:23:38;;;;;;;8.03;7.30;;;26.50;44.90;;;;;;4949508;29;20197;-78
2023/06/10 08:26:03;;;;;;;8.77;7.77;;;26.50;45.30;;;;;;4937651;29;20246;-76
2023/06/10 08:28:29;;;;;;;8.50;7.60;;;26.50;45.10;;;;;;4948399;29;20293;-79
2023/06/10 08:30:54;;;;;;;9.40;7.50;;;26.60;44.40;;;;;;4949741;29;20450;-78
2023/06/10 08:33:20;;;;;;;7.73;7.03;;;26.70;44.00;;;;;;4931244;29;20221;-76
2023/06/10 08:35:46;;;;;;;8.23;7.53;;;26.70;44.20;;;;;;4933724;29;20178;-76
2023/06/10 08:38:11;;;;;;;7.87;7.07;;;26.60;44.30;;;;;;4946185;29;20181;-75
2023/06/10 08:40:37;;;;;;;8.00;7.17;;;26.60;44.60;;;;;;4946850;29;20205;-75
2023/06/10 08:43:08;;;;;;;7.30;6.70;;;26.60;44.70;;;;;;4931161;29;20190;-75
2023/06/10 08:45:36;;;;;;;15.13;8.23;;;26.70;44.90;;;;;;4945829;29;20201;-75
2023/06/10 08:48:08;;;;;;;7.80;7.10;;;26.80;44.90;;;;;;4933811;29;20486;-75
2023/06/10 08:50:36;;;;;;;7.23;6.63;;;26.80;44.90;;;;;;4964099;28;20452;-75
2023/06/10 08:53:05;;;;;;;8.50;7.70;;;26.80;45.00;;;;;;4965208;29;20471;-75
2023/06/10 08:55:33;;;;;;;7.43;6.73;;;26.80;45.00;;;;;;4948714;29;20522;-76
2023/06/10 08:58:02;;;;;;;7.10;6.43;;;26.90;45.20;;;;;;4950709;29;20426;-74
2023/06/10 09:00:29;;;;;;;9.20;8.20;;;27.00;45.20;;;;;;4935119;29;20504;-76
2023/06/10 09:02:59;;;;;;;7.87;7.17;;;27.10;45.20;;;;;;4948575;29;20493;-76
2023/06/10 09:05:26;;;;;;;8.87;7.97;;;27.20;45.10;;;;;;4949907;29;20432;-79
2023/06/10 09:07:53;;;;;;;9.43;8.57;;;27.20;44.70;;;;;;4953739;29;20478;-78
2023/06/10 09:10:19;;;;;;;8.60;7.80;;;27.20;44.80;;;;;;4935471;29;20448;-75
2023/06/10 09:12:45;;;;;;;9.37;8.50;;;27.20;44.90;;;;;;4947963;29;20462;-75
2023/06/10 09:15:12;;;;;;;9.00;8.20;;;27.30;44.90;;;;;;4971625;28;20220;-78
2023/06/10 09:17:40;;;;;;;7.73;7.13;;;27.40;44.70;;;;;;4971839;28;20855;-79
2023/06/10 09:20:07;;;;;;;8.70;7.90;;;27.50;44.50;;;;;;4954586;29;20511;-75
2023/06/10 09:22:34;;;;;;;9.07;8.17;;;27.60;44.50;;;;;;4953948;29;20424;-75
2023/06/10 09:25:17;;;;;;;9.60;8.70;;;27.60;43.90;;;;;;4940642;29;20461;-77
2023/06/10 09:27:50;;;;;;;8.43;7.33;;;27.60;43.80;;;;;;4953724;28;20192;-76
2023/06/10 09:30:30;;;;;;;10.13;9.13;;;27.60;44.20;;;;;;4961239;29;20452;-76
2023/06/10 09:32:58;;;;;;;13.10;8.83;;;27.40;44.30;;;;;;4969863;29;20424;-75
2023/06/10 09:35:24;;;;;;;8.33;7.53;;;27.50;44.90;;;;;;4951670;29;20516;-78
2023/06/10 09:37:56;;;;;;;7.63;7.03;;;27.60;44.80;;;;;;4951221;29;20406;-75
2023/06/10 09:40:22;;;;;;;8.47;7.77;;;27.70;44.60;;;;;;4967305;29;20455;-78
2023/06/10 09:42:56;;;;;;;8.90;8.00;;;27.70;44.10;;;;;;4969248;28;20704;-76
2023/06/10 09:45:22;;;;;;;9.73;8.63;;;27.80;44.00;;;;;;4972961;28;20191;-77
2023/06/10 09:47:52;;;;;;;8.57;7.77;;;27.80;43.80;;;;;;4953702;28;20413;-75
2023/06/10 09:50:18;;;;;;;8.40;7.37;;;27.90;43.80;;;;;;4951092;29;20521;-76
2023/06/10 09:52:46;;;;;;;7.97;6.90;;;27.90;43.80;;;;;;4964133;29;20409;-74
2023/06/10 09:55:12;;;;;;;9.00;8.20;;;28.00;43.70;;;;;;4954278;29;20561;-75
2023/06/10 09:57:39;;;;;;;7.23;6.10;;;28.00;43.60;;;;;;4933683;29;20437;-76
2023/06/10 10:00:09;;;;;;;7.90;7.10;;;28.00;43.60;;;;;;4934062;29;20461;-76
2023/06/10 10:03:04;;;;;;;7.47;6.87;;;28.10;43.50;;;;;;4950535;29;20374;-79
2023/06/10 10:05:30;;;;;;;9.07;8.27;;;28.30;43.40;;;;;;4933785;29;20402;-76
2023/06/10 10:07:56;;;;;;;8.40;7.70;;;28.30;43.00;;;;;;4932283;29;20398;-76
2023/06/10 10:10:23;;;;;;;10.60;8.70;;;28.40;43.20;;;;;;4933358;29;20422;-75
2023/06/10 10:12:55;;;;;;;8.13;7.30;;;28.50;43.00;;;;;;4936941;29;20465;-79
2023/06/10 10:15:23;;;;;;;7.20;6.37;;;28.50;42.60;;;;;;4956635;29;20413;-79
2023/06/10 10:17:55;;;;;;;7.63;6.93;;;28.50;42.50;;;;;;4968858;28;20410;-79
2023/06/10 10:20:26;;;;;;;8.93;7.97;;;28.50;42.30;;;;;;4951381;29;20458;-76
2023/06/10 10:22:56;;;;;;;8.40;7.70;;;28.60;42.30;;;;;;4938950;29;20410;-80
2023/06/10 10:25:26;;;;;;;7.97;7.17;;;28.70;42.30;;;;;;4939870;29;20477;-78
2023/06/10 10:27:59;;;;;;;7.40;6.70;;;28.80;42.30;;;;;;4956862;29;20406;-79
2023/06/10 10:30:26;;;;;;;8.00;7.30;;;28.90;41.70;;;;;;4954691;29;20505;-78
2023/06/10 10:32:58;;;;;;;7.50;6.90;;;29.00;41.60;;;;;;4938744;29;20861;-78
2023/06/10 10:35:25;;;;;;;8.43;7.63;;;29.00;40.40;;;;;;4936313;29;20407;-78
2023/06/10 10:37:53;;;;;;;8.70;8.00;;;29.20;40.00;;;;;;4933499;29;20459;-80
2023/06/10 10:40:24;;;;;;;8.47;7.60;;;29.30;39.70;;;;;;4941118;29;20449;-78
2023/06/10 10:42:51;;;;;;;8.10;7.40;;;29.30;39.60;;;;;;4953859;29;20410;-78
2023/06/10 10:45:17;;;;;;;7.70;7.10;;;29.30;39.70;;;;;;4955792;29;20453;-76
2023/06/10 10:47:45;;;;;;;8.10;6.77;;;29.50;39.70;;;;;;4957628;29;20498;-77
2023/06/10 10:50:15;;;;;;;7.60;6.90;;;29.60;39.40;;;;;;4936715;29;20443;-77
2023/06/10 10:52:55;;;;;;;7.60;7.00;;;29.90;39.10;;;;;;4918732;29;20406;-77
2023/06/10 10:55:22;;;;;;;7.77;7.07;;;29.90;38.50;;;;;;4945574;29;20448;-78
2023/06/10 10:57:59;;;;;;;8.43;7.63;;;30.10;38.20;;;;;;4953207;29;20406;-78
2023/06/10 11:00:37;;;;;;;8.73;7.20;;;30.40;35.90;;;;;;4953090;29;20876;-78
2023/06/10 11:03:02;;;;;;;9.23;7.03;;;30.30;34.70;;;;;;4951958;29;20434;-77
2023/06/10 11:05:35;;;;;;;7.50;6.80;;;30.30;34.70;;;;;;4933498;29;20414;-77
2023/06/10 11:08:00;;;;;;;7.40;6.70;;;30.50;35.50;;;;;;4952544;29;20186;-76
2023/06/10 11:10:34;;;;;;;7.67;7.00;;;30.70;34.50;;;;;;4935933;29;20450;-79
2023/06/10 11:13:00;;;;;;;7.43;6.83;;;30.90;33.40;;;;;;4952622;29;20186;-77
2023/06/10 11:15:28;;;;;;;7.80;7.20;;;31.10;33.20;;;;;;4953853;29;20477;-75
2023/06/10 11:18:25;;;;;;;7.37;6.77;;;31.30;32.90;;;;;;4970357;29;20402;-79
2023/06/10 11:20:56;;;;;;;7.20;6.50;;;31.50;32.30;;;;;;4949880;29;20916;-75
2023/06/10 11:23:28;;;;;;;8.57;7.10;;;31.80;30.90;;;;;;4961961;29;20449;-79
2023/06/10 11:26:14;;;;;;;7.37;6.67;;;32.00;31.00;;;;;;4956473;29;20429;-79
2023/06/10 11:28:40;;;;;;;10.60;6.83;;;32.00;30.10;;;;;;4953334;29;20512;-78
2023/06/10 11:31:06;;;;;;;8.43;7.63;;;32.10;30.70;;;;;;4951067;29;20418;-78
2023/06/10 11:33:33;;;;;;;7.10;6.40;;;32.20;30.80;;;;;;4950874;29;20530;-78
2023/06/10 11:35:59;;;;;;;6.50;6.00;;;32.20;31.00;;;;;;4917027;29;20414;-79
2023/06/10 11:38:26;;;;;;;6.53;5.90;;;32.30;31.20;;;;;;4935586;28;20954;-78
2023/06/10 11:40:52;;;;;;;7.57;6.27;;;32.50;30.30;;;;;;4917026;29;20203;-77
2023/06/10 11:43:18;;;;;;;6.67;6.17;;;32.50;29.90;;;;;;4935468;29;20486;-79
2023/06/10 11:45:44;;;;;;;6.77;6.27;;;32.50;29.60;;;;;;4944273;29;20441;-78
2023/06/10 11:48:10;;;;;;;7.43;6.73;;;32.30;29.80;;;;;;4951706;29;20162;-78
2023/06/10 11:50:37;;;;;;;8.60;7.80;;;32.10;29.50;;;;;;4924588;29;20769;-79
2023/06/10 11:53:03;;;;;;;7.03;6.43;;;31.70;29.90;;;;;;4938699;29;20491;-77
2023/06/10 11:55:50;;;;;;;6.20;5.70;;;31.50;30.00;;;;;;4917216;29;20439;-77
2023/06/10 11:58:21;;;;;;;6.73;6.03;;;31.50;29.20;;;;;;4929903;29;20418;-76
2023/06/10 12:00:56;;;;;;;6.43;5.93;;;31.50;28.90;;;;;;4914591;29;20499;-78
2023/06/10 12:03:22;;;;;;;8.47;7.57;;;31.50;28.80;;;;;;4931225;29;20444;-78
2023/06/10 12:06:05;;;;;;;6.93;6.33;;;31.70;29.20;;;;;;4943731;29;20708;-77
2023/06/10 12:08:31;;;;;;;7.17;6.57;;;31.60;29.60;;;;;;4936051;29;20449;-76
2023/06/10 12:10:58;;;;;;;7.80;6.30;;;31.70;29.00;;;;;;4935043;29;20529;-76
2023/06/10 12:13:27;;;;;;;7.37;6.70;;;31.90;28.90;;;;;;4949019;29;20452;-77
2023/06/10 12:15:53;;;;;;;7.50;6.67;;;32.10;28.80;;;;;;4934761;29;20426;-77
2023/06/10 12:18:23;;;;;;;6.50;5.80;;;32.20;28.70;;;;;;4931805;29;20413;-76
2023/06/10 12:20:50;;;;;;;7.70;6.90;;;32.20;28.50;;;;;;4952055;29;20506;-77
2023/06/10 12:23:17;;;;;;;7.10;6.50;;;32.10;28.50;;;;;;4951408;29;20417;-77
2023/06/10 12:25:54;;;;;;;7.13;6.50;;;32.00;29.50;;;;;;4936927;29;20424;-80
2023/06/10 12:28:23;;;;;;;6.90;6.30;;;32.10;30.30;;;;;;4945968;29;20459;-80
2023/06/10 12:30:50;;;;;;;7.57;6.90;;;32.10;30.00;;;;;;4971922;29;20448;-80
2023/06/10 12:33:20;;;;;;;7.47;6.87;;;32.10;29.90;;;;;;4956934;29;20520;-79
2023/06/10 12:35:50;;;;;;;7.33;6.50;;;32.10;29.70;;;;;;4936947;29;20425;-79
2023/06/10 12:38:22;;;;;;;6.43;5.83;;;31.80;29.90;;;;;;4952652;29;20422;-78
2023/06/10 12:40:47;;;;;;;7.57;6.87;;;31.60;29.40;;;;;;4954081;29;20437;-78
2023/06/10 12:43:18;;;;;;;6.33;5.83;;;31.30;29.30;;;;;;4956828;29;20552;-78
2023/06/10 12:45:44;;;;;;;7.50;6.80;;;31.20;29.70;;;;;;4975461;29;20181;-79
2023/06/10 12:48:23;;;;;;;7.43;6.67;;;31.10;29.50;;;;;;4971750;29;20424;-78